createdAt,value
2022-08-30T00:00:17.867Z,60.45
2022-08-30T00:02:47.357Z,60.78
2022-08-30T00:05:18.473Z,60.32
2022-08-30T00:07:47.437Z,60.11
2022-08-30T00:10:20.372Z,60.70
2022-08-30T00:12:49.339Z,60.68
2022-08-30T00:15:20.925Z,60.59
2022-08-30T00:17:49.939Z,60.88
2022-08-30T00:20:20.995Z,61.07
2022-08-30T00:22:50.014Z,60.71
2022-08-30T00:25:20.296Z,60.62
2022-08-30T00:27:49.013Z,60.45
2022-08-30T00:30:19.718Z,60.21
2022-08-30T00:32:48.434Z,60.42
2022-08-30T00:35:20.532Z,60.01
2022-08-30T00:37:50.857Z,59.98
2022-08-30T00:40:20.701Z,59.87
2022-08-30T00:42:59.187Z,60.19
2022-08-30T00:45:31.922Z,60.10
2022-08-30T00:48:00.934Z,60.07
2022-08-30T00:50:32.880Z,59.90
2022-08-30T00:53:03.514Z,59.51
2022-08-30T00:55:33.266Z,60.05
2022-08-30T00:58:05.255Z,59.69
2022-08-30T01:00:35.557Z,59.69
2022-08-30T01:03:05.691Z,60.05
2022-08-30T01:05:34.288Z,59.51
2022-08-30T01:08:07.446Z,59.54
2022-08-30T01:10:36.901Z,59.38
2022-08-30T01:13:06.118Z,59.46
2022-08-30T01:15:36.196Z,58.72
2022-08-30T01:18:07.708Z,58.81
2022-08-30T01:20:40.258Z,58.78
2022-08-30T01:23:13.484Z,58.81
2022-08-30T01:25:44.284Z,59.07
2022-08-30T01:28:16.086Z,58.36
2022-08-30T01:30:44.949Z,58.48
2022-08-30T01:33:14.334Z,58.82
2022-08-30T01:35:48.934Z,58.22
2022-08-30T01:38:19.751Z,58.51
2022-08-30T01:40:48.581Z,58.37
2022-08-30T01:43:18.400Z,58.62
2022-08-30T01:45:47.379Z,58.67
2022-08-30T01:48:16.061Z,58.76
2022-08-30T01:50:45.168Z,58.32
2022-08-30T01:53:14.142Z,58.33
2022-08-30T01:55:44.332Z,58.31
2022-08-30T01:58:13.203Z,58.72
2022-08-30T02:00:42.290Z,58.22
2022-08-30T02:03:11.441Z,58.40
2022-08-30T02:05:40.294Z,58.40
2022-08-30T02:08:08.962Z,58.87
2022-08-30T02:10:37.571Z,58.60
2022-08-30T02:13:07.824Z,58.95
2022-08-30T02:15:41.684Z,58.72
2022-08-30T02:18:11.736Z,58.96
2022-08-30T02:20:40.975Z,59.40
2022-08-30T02:23:09.605Z,58.98
2022-08-30T02:25:38.523Z,59.03
2022-08-30T02:28:09.217Z,58.88
2022-08-30T02:30:38.577Z,59.26
2022-08-30T02:33:07.144Z,59.33
2022-08-30T02:35:35.840Z,59.46
2022-08-30T02:38:05.387Z,60.02
2022-08-30T02:40:34.717Z,60.22
2022-08-30T02:43:03.460Z,61.18
2022-08-30T02:45:35.533Z,61.18
2022-08-30T02:48:04.636Z,60.91
2022-08-30T02:50:33.519Z,61.43
2022-08-30T02:53:02.163Z,61.61
2022-08-30T02:55:30.966Z,61.58
2022-08-30T02:57:59.905Z,61.98
2022-08-30T03:00:28.516Z,62.18
2022-08-30T03:02:59.108Z,62.14
2022-08-30T03:05:28.205Z,62.56
2022-08-30T03:07:56.850Z,63.12
2022-08-30T03:10:25.463Z,62.50
2022-08-30T03:12:54.444Z,62.61
2022-08-30T03:15:25.381Z,62.71
2022-08-30T03:17:55.297Z,62.21
2022-08-30T03:20:25.816Z,62.30
2022-08-30T03:22:54.945Z,62.84
2022-08-30T03:25:23.904Z,62.48
2022-08-30T03:27:56.714Z,62.30
2022-08-30T03:30:25.651Z,62.21
2022-08-30T03:32:54.369Z,62.51
2022-08-30T03:35:23.009Z,62.89
2022-08-30T03:37:56.128Z,62.63
2022-08-30T03:40:25.338Z,62.53
2022-08-30T03:42:55.185Z,62.60
2022-08-30T03:45:23.921Z,62.89
2022-08-30T03:47:52.550Z,64.10
2022-08-30T03:50:21.523Z,63.50
2022-08-30T03:52:50.090Z,63.40
2022-08-30T03:55:20.874Z,63.58
2022-08-30T03:57:49.551Z,63.38
2022-08-30T04:00:20.853Z,63.13
2022-08-30T04:02:49.736Z,63.44
2022-08-30T04:05:18.775Z,63.51
2022-08-30T04:07:47.570Z,63.82
2022-08-30T04:10:16.561Z,62.91
2022-08-30T04:12:49.685Z,62.71
2022-08-30T04:15:22.530Z,63.36
2022-08-30T04:17:51.167Z,63.19
2022-08-30T04:20:20.364Z,62.83
2022-08-30T04:22:49.050Z,63.15
2022-08-30T04:25:17.720Z,62.87
2022-08-30T04:27:47.972Z,63.45
2022-08-30T04:30:17.830Z,62.97
2022-08-30T04:32:47.250Z,62.79
2022-08-30T04:35:15.954Z,63.06
2022-08-30T04:37:44.563Z,63.09
2022-08-30T04:40:14.240Z,62.59
2022-08-30T04:42:44.447Z,63.09
2022-08-30T04:45:16.590Z,63.18
2022-08-30T04:47:45.798Z,62.11
2022-08-30T04:50:16.994Z,62.05
2022-08-30T04:52:45.580Z,62.03
2022-08-30T04:55:19.508Z,62.25
2022-08-30T04:57:49.153Z,61.82
2022-08-30T05:00:20.688Z,62.04
2022-08-30T05:02:50.048Z,61.35
2022-08-30T05:05:37.233Z,61.19
2022-08-30T05:08:05.980Z,60.51
2022-08-30T05:10:35.260Z,60.65
2022-08-30T05:13:03.860Z,60.28
2022-08-30T05:15:33.838Z,60.51
2022-08-30T05:18:02.710Z,61.13
2022-08-30T05:20:31.542Z,60.73
2022-08-30T05:23:00.607Z,59.56
2022-08-30T05:25:32.572Z,59.73
2022-08-30T05:28:01.629Z,59.84
2022-08-30T05:30:35.561Z,60.33
2022-08-30T05:33:04.215Z,60.70
2022-08-30T05:35:33.169Z,60.09
2022-08-30T05:38:01.866Z,60.41
2022-08-30T05:40:31.573Z,60.18
2022-08-30T05:43:01.007Z,58.56
2022-08-30T05:45:29.631Z,58.13
2022-08-30T05:47:59.773Z,57.37
2022-08-30T05:50:28.715Z,58.74
2022-08-30T05:52:57.369Z,59.09
2022-08-30T05:55:28.611Z,57.98
2022-08-30T05:57:57.523Z,58.15
2022-08-30T06:00:26.635Z,57.11
2022-08-30T06:02:55.751Z,55.94
2022-08-30T06:05:25.731Z,54.03
2022-08-30T06:07:54.869Z,54.39
2022-08-30T06:10:23.458Z,54.00
2022-08-30T06:12:52.072Z,52.61
2022-08-30T06:15:20.956Z,52.60
2022-08-30T06:17:49.619Z,52.26
2022-08-30T06:20:18.859Z,51.78
2022-08-30T06:22:49.104Z,51.72
2022-08-30T06:25:18.364Z,51.94
2022-08-30T06:27:47.223Z,51.12
2022-08-30T06:30:16.138Z,50.64
2022-08-30T06:32:47.856Z,49.45
2022-08-30T06:35:16.519Z,49.60
2022-08-30T06:37:45.144Z,49.46
2022-08-30T06:40:21.647Z,48.85
2022-08-30T06:42:53.794Z,49.14
2022-08-30T06:45:23.207Z,47.04
2022-08-30T06:47:51.913Z,47.38
2022-08-30T06:50:20.958Z,47.74
2022-08-30T06:52:50.307Z,48.24
2022-08-30T06:55:20.509Z,48.48
2022-08-30T06:57:49.122Z,48.11
2022-08-30T07:00:18.656Z,48.42
2022-08-30T07:02:47.385Z,48.20
2022-08-30T07:05:18.954Z,47.36
2022-08-30T07:07:48.032Z,46.97
2022-08-30T07:10:17.320Z,46.64
2022-08-30T07:12:47.462Z,46.45
2022-08-30T07:15:16.756Z,46.60
2022-08-30T07:18:03.085Z,45.71
2022-08-30T07:20:40.522Z,46.14
2022-08-30T07:23:10.355Z,45.29
2022-08-30T07:25:39.724Z,44.88
2022-08-30T07:28:10.621Z,44.47
2022-08-30T07:30:40.215Z,45.09
2022-08-30T07:33:09.577Z,44.74
2022-08-30T07:35:38.620Z,44.35
2022-08-30T07:38:07.551Z,42.09
2022-08-30T07:40:39.348Z,42.22
2022-08-30T07:43:09.855Z,41.90
2022-08-30T07:45:39.236Z,42.25
2022-08-30T07:48:08.464Z,42.96
2022-08-30T07:50:37.077Z,42.13
2022-08-30T07:53:07.976Z,41.55
2022-08-30T07:55:39.644Z,40.63
2022-08-30T07:58:09.612Z,41.32
2022-08-30T08:00:38.224Z,41.00
2022-08-30T08:03:08.404Z,40.78
2022-08-30T08:05:40.788Z,38.60
2022-08-30T08:08:10.505Z,39.29
2022-08-30T08:10:40.982Z,40.59
2022-08-30T08:13:11.016Z,38.83
2022-08-30T08:15:39.915Z,39.53
2022-08-30T08:18:08.603Z,38.16
2022-08-30T08:20:37.787Z,39.85
2022-08-30T08:23:06.446Z,37.60
2022-08-30T08:25:35.462Z,39.57
2022-08-30T08:28:04.812Z,39.32
2022-08-30T08:30:35.964Z,38.59
2022-08-30T08:33:05.370Z,38.63
2022-08-30T08:35:34.386Z,39.86
2022-08-30T08:38:03.358Z,39.57
2022-08-30T08:40:35.735Z,39.99
2022-08-30T08:43:07.103Z,38.94
2022-08-30T08:45:43.849Z,38.72
2022-08-30T08:48:18.252Z,39.58
2022-08-30T08:51:02.859Z,38.51
2022-08-30T08:53:51.467Z,39.89
2022-08-30T08:56:21.992Z,38.02
2022-08-30T08:58:52.806Z,39.21
2022-08-30T09:01:24.813Z,39.23
2022-08-30T09:03:53.631Z,39.14
2022-08-30T09:06:45.059Z,39.35
2022-08-30T09:09:14.724Z,40.25
2022-08-30T09:11:44.465Z,39.12
2022-08-30T09:14:15.844Z,38.11
2022-08-30T09:16:54.176Z,39.00
2022-08-30T09:19:30.653Z,38.81
2022-08-30T09:22:06.237Z,38.52
2022-08-30T09:24:40.360Z,39.11
2022-08-30T09:27:24.267Z,39.88
2022-08-30T09:29:55.240Z,38.13
2022-08-30T09:32:29.721Z,37.50
2022-08-30T09:34:58.991Z,38.66
2022-08-30T09:37:35.807Z,38.74
2022-08-30T09:40:11.971Z,38.25
2022-08-30T09:42:41.236Z,38.62
2022-08-30T09:45:21.412Z,39.30
2022-08-30T09:47:51.666Z,39.33
2022-08-30T09:50:24.135Z,39.61
2022-08-30T09:52:59.174Z,38.39
2022-08-30T09:55:38.939Z,37.90
2022-08-30T09:58:12.878Z,36.98
2022-08-30T10:00:44.872Z,36.14
2022-08-30T10:03:35.831Z,36.27
2022-08-30T10:06:19.785Z,37.96
2022-08-30T10:08:59.791Z,38.17
2022-08-30T10:11:34.299Z,37.92
2022-08-30T10:14:25.641Z,37.22
2022-08-30T10:17:00.695Z,37.23
2022-08-30T10:19:42.709Z,38.11
2022-08-30T10:22:13.421Z,38.65
2022-08-30T10:24:44.088Z,39.29
2022-08-30T10:27:16.180Z,38.22
2022-08-30T10:29:48.919Z,38.27
2022-08-30T10:32:21.893Z,38.73
2022-08-30T10:34:55.726Z,38.08
2022-08-30T10:37:27.005Z,37.21
2022-08-30T10:40:21.687Z,38.35
2022-08-30T10:42:52.454Z,38.27
2022-08-30T10:45:22.189Z,37.49
2022-08-30T10:47:59.018Z,36.96
2022-08-30T10:50:39.157Z,37.01
2022-08-30T10:53:18.588Z,37.07
2022-08-30T10:55:51.676Z,35.73
2022-08-30T10:58:20.624Z,35.80
2022-08-30T11:00:59.718Z,36.71
2022-08-30T11:04:00.467Z,36.21
2022-08-30T11:06:36.027Z,36.73
2022-08-30T11:09:21.956Z,35.46
2022-08-30T11:12:03.432Z,35.71
2022-08-30T11:14:32.089Z,34.97
2022-08-30T11:17:02.188Z,35.14
2022-08-30T11:19:38.272Z,35.87
2022-08-30T11:22:18.126Z,35.38
2022-08-30T11:25:10.091Z,35.86
2022-08-30T11:27:48.674Z,37.27
2022-08-30T11:30:51.734Z,35.34
2022-08-30T11:33:37.226Z,35.21
2022-08-30T11:36:06.530Z,34.44
2022-08-30T11:39:04.529Z,35.00
2022-08-30T11:41:41.594Z,35.75
2022-08-30T11:44:31.332Z,35.19
2022-08-30T11:47:01.205Z,35.38
2022-08-30T11:49:46.355Z,35.65
2022-08-30T11:52:28.024Z,35.82
2022-08-30T11:55:26.118Z,35.95
2022-08-30T11:57:59.994Z,34.46
2022-08-30T12:00:36.262Z,34.19
2022-08-30T12:03:06.937Z,33.57
2022-08-30T12:05:59.094Z,32.66
2022-08-30T12:08:58.026Z,32.69
2022-08-30T12:12:06.642Z,32.84
2022-08-30T12:14:54.734Z,31.81
2022-08-30T12:17:50.562Z,33.34
2022-08-30T12:20:24.794Z,34.13
2022-08-30T12:22:54.043Z,33.72
2022-08-30T12:25:30.109Z,33.98
2022-08-30T12:28:16.335Z,32.72
2022-08-30T12:30:46.562Z,31.48
2022-08-30T12:33:28.940Z,32.16
2022-08-30T12:36:01.469Z,31.57
2022-08-30T12:38:30.904Z,30.85
2022-08-30T12:41:05.823Z,32.08
2022-08-30T12:43:41.661Z,31.52
2022-08-30T12:46:15.158Z,32.28
2022-08-30T12:48:44.798Z,31.91
2022-08-30T12:51:33.261Z,31.12
2022-08-30T12:54:14.663Z,31.10
2022-08-30T12:56:54.032Z,30.75
2022-08-30T12:59:58.475Z,29.61
2022-08-30T13:02:42.951Z,30.60
2022-08-30T13:05:52.904Z,29.88
2022-08-30T13:08:25.273Z,30.36
2022-08-30T13:10:57.331Z,29.02
2022-08-30T13:13:33.866Z,28.98
2022-08-30T13:16:26.700Z,28.57
2022-08-30T13:19:19.623Z,27.02
2022-08-30T13:21:51.279Z,26.92
2022-08-30T13:24:24.784Z,26.75
2022-08-30T13:26:55.692Z,26.95
2022-08-30T13:29:27.411Z,25.13
2022-08-30T13:31:57.572Z,26.11
2022-08-30T13:34:26.649Z,25.88
2022-08-30T13:36:57.478Z,26.10
2022-08-30T13:39:26.866Z,26.04
2022-08-30T13:42:31.224Z,26.08
2022-08-30T13:44:45.118Z,25.53
2022-08-30T13:47:37.000Z,25.91
2022-08-30T13:50:07.589Z,24.83
2022-08-30T13:52:38.370Z,25.23
2022-08-30T13:55:08.424Z,24.78
2022-08-30T13:57:56.052Z,24.42
2022-08-30T14:00:26.617Z,24.88
2022-08-30T14:03:00.114Z,25.00
2022-08-30T14:06:00.364Z,24.67
2022-08-30T14:11:18.966Z,24.54
2022-08-30T14:16:39.093Z,23.43
2022-08-30T14:19:10.186Z,23.15
2022-08-30T14:21:39.594Z,23.74
2022-08-30T14:24:08.667Z,23.67
2022-08-30T14:26:44.020Z,24.03
2022-08-30T14:29:17.769Z,22.74
2022-08-30T14:31:48.661Z,23.03
2022-08-30T14:34:19.568Z,22.29
2022-08-30T14:36:48.524Z,22.38
2022-08-30T14:39:18.966Z,22.92
2022-08-30T14:41:47.972Z,22.12
2022-08-30T14:44:18.800Z,21.81
2022-08-30T14:46:47.834Z,21.80
2022-08-30T14:49:18.352Z,21.96
2022-08-30T14:51:49.377Z,22.48
2022-08-30T14:54:21.500Z,23.68
2022-08-30T14:56:50.404Z,24.39
2022-08-30T14:59:19.360Z,25.15
2022-08-30T15:01:48.136Z,26.44
2022-08-30T15:04:19.091Z,27.15
2022-08-30T15:06:50.943Z,27.63
2022-08-30T15:09:23.213Z,27.92
2022-08-30T15:11:53.082Z,28.17
2022-08-30T15:14:24.102Z,29.56
2022-08-30T15:16:54.759Z,30.57
2022-08-30T15:19:25.127Z,32.37
2022-08-30T15:21:53.824Z,33.26
2022-08-30T15:24:29.804Z,33.81
2022-08-30T15:26:59.938Z,34.38
2022-08-30T15:29:30.620Z,35.04
2022-08-30T15:32:02.424Z,34.89
2022-08-30T15:34:33.161Z,35.22
2022-08-30T15:37:02.241Z,34.97
2022-08-30T15:39:32.226Z,35.18
2022-08-30T15:42:01.802Z,35.01
2022-08-30T15:44:31.838Z,35.07
2022-08-30T15:47:00.826Z,35.23
2022-08-30T15:49:29.946Z,35.76
2022-08-30T15:52:01.766Z,35.64
2022-08-30T15:54:30.429Z,35.32
2022-08-30T15:57:00.095Z,35.60
2022-08-30T15:59:29.451Z,35.76
2022-08-30T16:01:58.477Z,36.28
2022-08-30T16:04:28.408Z,36.67
2022-08-30T16:06:57.083Z,36.04
2022-08-30T16:09:30.097Z,35.74
2022-08-30T16:12:04.903Z,35.45
2022-08-30T16:14:33.733Z,36.32
2022-08-30T16:17:03.291Z,36.33
2022-08-30T16:19:31.987Z,37.01
2022-08-30T16:22:00.717Z,37.27
2022-08-30T16:24:31.087Z,36.85
2022-08-30T16:27:00.044Z,37.25
2022-08-30T16:29:29.311Z,37.62
2022-08-30T16:31:58.895Z,37.02
2022-08-30T16:34:28.117Z,36.51
2022-08-30T16:36:57.514Z,36.31
2022-08-30T16:39:26.588Z,36.48
2022-08-30T16:41:57.141Z,36.32
2022-08-30T16:44:26.505Z,36.83
2022-08-30T16:46:58.796Z,36.20
2022-08-30T16:49:27.974Z,40.07
2022-08-30T16:51:57.201Z,37.11
2022-08-30T16:54:25.965Z,35.97
2022-08-30T16:56:56.436Z,36.19
2022-08-30T16:59:28.375Z,36.93
2022-08-30T17:01:57.641Z,35.95
2022-08-30T17:04:28.303Z,36.09
2022-08-30T17:06:57.703Z,36.36
2022-08-30T17:09:27.432Z,35.03
2022-08-30T17:11:57.420Z,35.59
2022-08-30T17:14:29.328Z,36.35
2022-08-30T17:16:58.475Z,36.24
2022-08-30T17:19:29.993Z,36.01
2022-08-30T17:21:59.454Z,36.41
2022-08-30T17:24:28.698Z,36.45
2022-08-30T17:26:58.994Z,36.60
2022-08-30T17:29:27.857Z,36.45
2022-08-30T17:31:56.955Z,36.72
2022-08-30T17:34:27.058Z,36.67
2022-08-30T17:36:57.278Z,37.06
2022-08-30T17:39:26.552Z,37.25
2022-08-30T17:41:55.942Z,36.96
2022-08-30T17:44:29.015Z,37.17
2022-08-30T17:46:59.628Z,37.57
2022-08-30T17:49:31.930Z,37.89
2022-08-30T17:52:01.661Z,38.33
2022-08-30T17:54:31.698Z,38.89
2022-08-30T17:57:00.619Z,39.49
2022-08-30T17:59:31.571Z,39.15
2022-08-30T18:02:02.274Z,39.33
2022-08-30T18:04:31.371Z,39.32
2022-08-30T18:07:00.274Z,39.31
2022-08-30T18:09:33.708Z,39.78
2022-08-30T18:12:03.391Z,39.70
2022-08-30T18:14:33.391Z,40.41
2022-08-30T18:17:04.758Z,41.30
2022-08-30T18:19:33.747Z,41.36
2022-08-30T18:22:03.151Z,41.20
2022-08-30T18:24:32.679Z,41.28
2022-08-30T18:27:02.019Z,41.50
2022-08-30T18:29:33.772Z,42.16
2022-08-30T18:32:03.520Z,42.69
2022-08-30T18:34:33.124Z,42.56
2022-08-30T18:37:01.801Z,42.99
2022-08-30T18:39:34.170Z,43.17
2022-08-30T18:42:03.982Z,43.34
2022-08-30T18:44:34.591Z,43.42
2022-08-30T18:47:05.767Z,43.43
2022-08-30T18:49:35.883Z,43.33
2022-08-30T18:52:07.641Z,43.63
2022-08-30T18:54:39.456Z,43.75
2022-08-30T18:57:09.917Z,43.78
2022-08-30T18:59:41.917Z,43.50
2022-08-30T19:02:13.599Z,43.49
2022-08-30T19:04:43.364Z,43.74
2022-08-30T19:07:15.463Z,44.25
2022-08-30T19:09:45.314Z,44.66
2022-08-30T19:12:14.681Z,44.48
2022-08-30T19:14:46.291Z,45.22
2022-08-30T19:17:15.587Z,44.58
2022-08-30T19:19:46.112Z,44.68
2022-08-30T19:22:19.334Z,45.05
2022-08-30T19:24:49.846Z,44.85
2022-08-30T19:27:21.488Z,44.95
2022-08-30T19:30:09.697Z,44.94
2022-08-30T19:32:38.796Z,45.25
2022-08-30T19:35:08.662Z,44.97
2022-08-30T19:37:37.916Z,45.20
2022-08-30T19:40:11.713Z,44.99
2022-08-30T19:42:46.390Z,44.55
2022-08-30T19:45:21.698Z,45.35
2022-08-30T19:47:52.041Z,44.85
2022-08-30T19:50:21.799Z,44.95
2022-08-30T19:52:54.203Z,44.98
2022-08-30T19:55:28.415Z,44.52
2022-08-30T19:57:58.883Z,44.64
2022-08-30T20:00:31.196Z,44.77
2022-08-30T20:03:01.670Z,45.14
2022-08-30T20:05:31.044Z,45.25
2022-08-30T20:08:00.589Z,45.10
2022-08-30T20:10:29.302Z,45.72
2022-08-30T20:12:57.989Z,44.81
2022-08-30T20:15:27.108Z,44.93
2022-08-30T20:18:05.397Z,45.03
2022-08-30T20:20:36.698Z,45.03
2022-08-30T20:23:06.122Z,45.00
2022-08-30T20:25:37.937Z,45.34
2022-08-30T20:28:07.074Z,45.33
2022-08-30T20:30:36.010Z,45.50
2022-08-30T20:33:09.110Z,45.22
2022-08-30T20:35:38.426Z,45.07
2022-08-30T20:38:07.269Z,45.62
2022-08-30T20:40:37.138Z,45.68
2022-08-30T20:43:06.370Z,45.79
2022-08-30T20:45:35.543Z,45.81
2022-08-30T20:48:06.406Z,45.56
2022-08-30T20:50:35.303Z,45.81
2022-08-30T20:53:03.917Z,45.83
2022-08-30T20:55:32.635Z,45.64
2022-08-30T20:58:01.527Z,45.94
2022-08-30T21:00:30.167Z,46.36
2022-08-30T21:02:58.841Z,46.46
2022-08-30T21:05:29.247Z,46.58
2022-08-30T21:07:57.843Z,46.16
2022-08-30T21:10:26.632Z,46.28
2022-08-30T21:12:55.527Z,46.55
2022-08-30T21:15:37.360Z,46.77
2022-08-30T21:18:07.179Z,46.83
2022-08-30T21:20:37.153Z,46.92
2022-08-30T21:23:05.776Z,46.22
2022-08-30T21:25:36.830Z,46.25
2022-08-30T21:28:05.453Z,46.46
2022-08-30T21:30:34.663Z,46.72
2022-08-30T21:33:04.121Z,46.87
2022-08-30T21:35:50.433Z,46.90
2022-08-30T21:38:20.799Z,46.99
2022-08-30T21:40:49.721Z,47.11
2022-08-30T21:43:18.504Z,47.23
2022-08-30T21:45:50.204Z,46.88
2022-08-30T21:48:19.079Z,47.18
2022-08-30T21:50:48.141Z,47.27
2022-08-30T21:53:17.145Z,46.81
2022-08-30T21:55:48.106Z,47.21
2022-08-30T21:58:17.295Z,47.53
2022-08-30T22:00:45.922Z,47.71
2022-08-30T22:03:15.199Z,48.00
2022-08-30T22:05:44.006Z,48.20
2022-08-30T22:08:12.681Z,48.42
2022-08-30T22:10:41.573Z,48.26
2022-08-30T22:13:13.126Z,48.31
2022-08-30T22:15:42.469Z,48.59
2022-08-30T22:18:11.104Z,48.53
2022-08-30T22:20:40.881Z,48.48
2022-08-30T22:23:10.621Z,48.26
2022-08-30T22:25:39.580Z,48.27
2022-08-30T22:28:08.306Z,48.26
2022-08-30T22:30:38.558Z,48.14
2022-08-30T22:33:07.198Z,48.17
2022-08-30T22:35:37.411Z,48.78
2022-08-30T22:38:06.562Z,48.81
2022-08-30T22:40:35.568Z,48.69
2022-08-30T22:43:05.231Z,48.73
2022-08-30T22:45:34.149Z,49.17
2022-08-30T22:48:04.601Z,49.40
2022-08-30T22:50:33.231Z,49.28
2022-08-30T22:53:02.150Z,49.60
2022-08-30T22:55:31.074Z,50.03
2022-08-30T22:57:59.891Z,49.88
2022-08-30T23:00:30.685Z,50.09
2022-08-30T23:02:59.314Z,49.87
2022-08-30T23:05:29.766Z,49.93
2022-08-30T23:07:58.950Z,50.38
2022-08-30T23:10:29.224Z,49.71
2022-08-30T23:12:58.572Z,49.96
2022-08-30T23:15:28.567Z,49.77
2022-08-30T23:17:58.062Z,50.92
2022-08-30T23:20:26.947Z,51.82
2022-08-30T23:22:58.520Z,52.72
2022-08-30T23:25:47.043Z,51.73
2022-08-30T23:28:37.399Z,51.10
2022-08-30T23:31:29.135Z,51.56
2022-08-30T23:34:15.543Z,51.50
2022-08-30T23:37:02.555Z,50.40
2022-08-30T23:39:50.159Z,51.02
2022-08-30T23:42:38.175Z,50.90
2022-08-30T23:45:25.617Z,50.33
2022-08-30T23:48:13.170Z,50.44
2022-08-30T23:50:59.184Z,50.17
2022-08-30T23:53:45.554Z,49.98
2022-08-30T23:56:33.239Z,50.37
2022-08-30T23:59:19.640Z,49.68
